createdAt,value
2022-08-20T00:00:48.592Z,99413.84
2022-08-20T00:03:22.098Z,99414.81
2022-08-20T00:06:15.942Z,99409.16
2022-08-20T00:08:43.555Z,99405.22
2022-08-20T00:11:14.606Z,99414.16
2022-08-20T00:13:47.191Z,99410.59
2022-08-20T00:16:15.935Z,99403.53
2022-08-20T00:18:43.035Z,99409.88
2022-08-20T00:21:12.187Z,99411.91
2022-08-20T00:23:50.248Z,99408.47
2022-08-20T00:26:17.699Z,99410.06
2022-08-20T00:28:44.763Z,99411.91
2022-08-20T00:31:13.958Z,99412.19
2022-08-20T00:33:40.952Z,99411.75
2022-08-20T00:36:10.745Z,99410.59
2022-08-20T00:38:39.094Z,99412.06
2022-08-20T00:41:07.359Z,99419.00
2022-08-20T00:43:48.086Z,99409.41
2022-08-20T00:46:31.865Z,99416.44
2022-08-20T00:49:02.528Z,99414.47
2022-08-20T00:51:38.195Z,99403.44
2022-08-20T00:54:11.109Z,99412.88
2022-08-20T00:56:38.907Z,99412.44
2022-08-20T00:59:11.348Z,99421.06
2022-08-20T01:01:55.118Z,99417.06
2022-08-20T01:04:27.459Z,99420.97
2022-08-20T01:06:54.639Z,99428.78
2022-08-20T01:09:33.545Z,99418.50
2022-08-20T01:12:10.322Z,99424.00
2022-08-20T01:14:46.696Z,99416.91
2022-08-20T01:17:19.086Z,99426.31
2022-08-20T01:19:53.003Z,99424.72
2022-08-20T01:22:47.237Z,99417.63
2022-08-20T01:25:23.898Z,99423.81
2022-08-20T01:27:53.225Z,99426.50
2022-08-20T01:30:23.619Z,99431.59
2022-08-20T01:32:50.157Z,99433.91
2022-08-20T01:35:21.146Z,99434.53
2022-08-20T01:37:47.685Z,99440.28
2022-08-20T01:40:21.386Z,99430.47
2022-08-20T01:42:59.242Z,99428.19
2022-08-20T01:45:29.212Z,99430.38
2022-08-20T01:47:58.264Z,99425.59
2022-08-20T01:50:28.957Z,99430.63
2022-08-20T01:53:11.401Z,99431.78
2022-08-20T01:55:38.774Z,99442.75
2022-08-20T01:58:05.749Z,99436.59
2022-08-20T02:00:32.661Z,99443.66
2022-08-20T02:02:59.292Z,99444.47
2022-08-20T02:05:30.525Z,99449.97
2022-08-20T02:07:57.410Z,99452.31
2022-08-20T02:10:24.151Z,99440.56
2022-08-20T02:12:50.819Z,99452.31
2022-08-20T02:15:19.796Z,99450.72
2022-08-20T02:18:03.779Z,99454.81
2022-08-20T02:20:31.935Z,99450.97
2022-08-20T02:23:00.508Z,99453.03
2022-08-20T02:25:30.459Z,99461.72
2022-08-20T02:27:57.996Z,99463.19
2022-08-20T02:30:34.725Z,99460.78
2022-08-20T02:33:06.023Z,99467.19
2022-08-20T02:35:34.216Z,99461.03
2022-08-20T02:38:01.795Z,99468.09
2022-08-20T02:40:30.931Z,99454.28
2022-08-20T02:43:00.180Z,99466.28
2022-08-20T02:45:27.964Z,99463.81
2022-08-20T02:47:56.816Z,99457.06
2022-08-20T02:50:26.188Z,99455.75
2022-08-20T02:52:53.995Z,99455.41
2022-08-20T02:55:26.882Z,99458.16
2022-08-20T02:57:58.767Z,99457.00
2022-08-20T03:00:27.831Z,99454.97
2022-08-20T03:02:54.390Z,99456.47
2022-08-20T03:05:21.271Z,99457.28
2022-08-20T03:07:53.469Z,99460.03
2022-08-20T03:10:26.290Z,99462.66
2022-08-20T03:12:52.822Z,99457.50
2022-08-20T03:15:20.711Z,99459.38
2022-08-20T03:17:47.556Z,99461.69
2022-08-20T03:20:14.606Z,99457.59
2022-08-20T03:22:41.293Z,99453.97
2022-08-20T03:25:08.674Z,99457.41
2022-08-20T03:27:36.424Z,99451.47
2022-08-20T03:30:06.751Z,99459.25
2022-08-20T03:32:33.378Z,99463.41
2022-08-20T03:35:00.072Z,99456.34
2022-08-20T03:37:31.097Z,99466.16
2022-08-20T03:39:58.332Z,99463.31
2022-08-20T03:42:25.011Z,99462.06
2022-08-20T03:44:58.830Z,99465.84
2022-08-20T03:47:26.471Z,99464.59
2022-08-20T03:49:53.153Z,99468.50
2022-08-20T03:52:19.680Z,99465.31
2022-08-20T03:54:46.258Z,99468.41
2022-08-20T03:57:14.998Z,99471.84
2022-08-20T03:59:43.222Z,99473.22
2022-08-20T04:02:11.082Z,99466.38
2022-08-20T04:04:40.178Z,99468.78
2022-08-20T04:07:15.819Z,99476.56
2022-08-20T04:09:43.894Z,99473.34
2022-08-20T04:12:13.015Z,99480.66
2022-08-20T04:14:40.279Z,99476.91
2022-08-20T04:17:10.033Z,99479.13
2022-08-20T04:19:37.313Z,99495.44
2022-08-20T04:22:04.056Z,99482.78
2022-08-20T04:24:32.074Z,99489.78
2022-08-20T04:27:00.160Z,99479.41
2022-08-20T04:29:32.181Z,99486.25
2022-08-20T04:32:00.665Z,99484.66
2022-08-20T04:34:29.675Z,99488.56
2022-08-20T04:36:56.260Z,99491.63
2022-08-20T04:39:23.704Z,99490.34
2022-08-20T04:41:50.437Z,99485.81
2022-08-20T04:44:17.012Z,99490.41
2022-08-20T04:46:43.764Z,99501.22
2022-08-20T04:49:10.355Z,99506.59
2022-08-20T04:51:37.144Z,99505.22
2022-08-20T04:54:04.601Z,99499.28
2022-08-20T04:56:34.950Z,99499.41
2022-08-20T04:59:01.957Z,99491.91
2022-08-20T05:01:29.293Z,99491.53
2022-08-20T05:03:57.976Z,99501.16
2022-08-20T05:06:28.572Z,99495.69
2022-08-20T05:08:57.304Z,99498.34
2022-08-20T05:11:35.343Z,99501.72
2022-08-20T05:14:09.011Z,99500.44
2022-08-20T05:16:39.046Z,99501.81
2022-08-20T05:19:08.767Z,99506.31
2022-08-20T05:21:35.565Z,99510.53
2022-08-20T05:24:02.937Z,99514.63
2022-08-20T05:26:29.606Z,99522.91
2022-08-20T05:28:58.362Z,99527.41
2022-08-20T05:31:32.261Z,99532.16
2022-08-20T05:34:01.416Z,99525.34
2022-08-20T05:36:28.189Z,99524.09
2022-08-20T05:38:54.821Z,99528.69
2022-08-20T05:41:29.200Z,99532.56
2022-08-20T05:44:02.692Z,99533.91
2022-08-20T05:46:32.393Z,99546.13
2022-08-20T05:49:01.590Z,99542.94
2022-08-20T05:51:29.240Z,99556.56
2022-08-20T05:53:59.424Z,99559.53
2022-08-20T05:56:27.637Z,99558.47
2022-08-20T05:58:54.496Z,99558.06
2022-08-20T06:01:21.411Z,99555.66
2022-08-20T06:04:06.788Z,99561.94
2022-08-20T06:06:44.798Z,99568.34
2022-08-20T06:09:30.622Z,99563.56
2022-08-20T06:12:00.136Z,99562.19
2022-08-20T06:14:26.728Z,99561.50
2022-08-20T06:16:58.045Z,99555.59
2022-08-20T06:19:26.939Z,99559.06
2022-08-20T06:21:53.904Z,99566.97
2022-08-20T06:24:21.331Z,99571.09
2022-08-20T06:26:47.990Z,99564.25
2022-08-20T06:29:15.798Z,99577.75
2022-08-20T06:31:42.410Z,99577.97
2022-08-20T06:34:09.001Z,99569.53
2022-08-20T06:36:35.569Z,99574.78
2022-08-20T06:39:02.205Z,99570.88
2022-08-20T06:41:36.306Z,99581.78
2022-08-20T06:44:04.843Z,99586.22
2022-08-20T06:46:32.238Z,99580.91
2022-08-20T06:48:58.983Z,99592.53
2022-08-20T06:51:25.528Z,99594.56
2022-08-20T06:53:52.244Z,99587.00
2022-08-20T06:56:19.028Z,99605.56
2022-08-20T06:58:45.720Z,99600.84
2022-08-20T07:01:13.834Z,99599.00
2022-08-20T07:03:42.275Z,99597.88
2022-08-20T07:06:22.129Z,99605.00
2022-08-20T07:08:48.739Z,99606.88
2022-08-20T07:11:15.449Z,99610.09
2022-08-20T07:13:42.115Z,99606.47
2022-08-20T07:16:09.037Z,99598.72
2022-08-20T07:18:36.679Z,99601.00
2022-08-20T07:21:03.813Z,99601.22
2022-08-20T07:23:31.705Z,99607.84
2022-08-20T07:25:58.537Z,99611.84
2022-08-20T07:28:31.926Z,99616.50
2022-08-20T07:31:17.113Z,99621.75
2022-08-20T07:33:47.040Z,99621.97
2022-08-20T07:36:17.740Z,99627.13
2022-08-20T07:38:48.884Z,99625.88
2022-08-20T07:41:15.535Z,99632.81
2022-08-20T07:43:45.579Z,99619.56
2022-08-20T07:46:17.739Z,99623.22
2022-08-20T07:48:49.944Z,99626.75
2022-08-20T07:51:19.465Z,99621.09
2022-08-20T07:53:47.711Z,99616.72
2022-08-20T07:56:19.367Z,99612.72
2022-08-20T07:58:50.114Z,99615.91
2022-08-20T08:01:25.696Z,99617.03
2022-08-20T08:03:52.793Z,99618.97
2022-08-20T08:06:30.247Z,99622.38
2022-08-20T08:09:15.251Z,99630.25
2022-08-20T08:11:47.425Z,99638.03
2022-08-20T08:14:16.731Z,99629.78
2022-08-20T08:16:45.419Z,99636.59
2022-08-20T08:19:14.769Z,99628.66
2022-08-20T08:21:42.033Z,99620.00
2022-08-20T08:24:08.604Z,99622.72
2022-08-20T08:26:35.167Z,99632.78
2022-08-20T08:29:02.608Z,99623.25
2022-08-20T08:31:29.339Z,99630.53
2022-08-20T08:33:55.924Z,99627.97
2022-08-20T08:36:22.540Z,99620.44
2022-08-20T08:38:49.125Z,99624.94
2022-08-20T08:41:20.639Z,99631.09
2022-08-20T08:43:53.261Z,99616.97
2022-08-20T08:46:26.045Z,99623.72
2022-08-20T08:48:57.918Z,99619.00
2022-08-20T08:51:35.302Z,99624.50
2022-08-20T08:54:06.609Z,99614.78
2022-08-20T08:56:34.754Z,99622.38
2022-08-20T08:59:07.752Z,99625.75
2022-08-20T09:01:59.754Z,99632.03
2022-08-20T09:04:44.744Z,99629.50
2022-08-20T09:07:15.820Z,99625.84
2022-08-20T09:09:47.103Z,99630.38
2022-08-20T09:12:18.887Z,99618.69
2022-08-20T09:14:48.012Z,99620.97
2022-08-20T09:17:19.211Z,99623.66
2022-08-20T09:19:45.941Z,99620.53
2022-08-20T09:22:15.989Z,99626.78
2022-08-20T09:24:43.835Z,99620.72
2022-08-20T09:27:11.361Z,99622.19
2022-08-20T09:29:39.011Z,99618.63
2022-08-20T09:32:16.349Z,99616.13
2022-08-20T09:34:47.142Z,99625.28
2022-08-20T09:37:15.053Z,99620.19
2022-08-20T09:39:42.971Z,99619.59
2022-08-20T09:42:22.213Z,99618.28
2022-08-20T09:44:48.897Z,99615.22
2022-08-20T09:47:17.333Z,99620.16
2022-08-20T09:49:44.819Z,99617.97
2022-08-20T09:52:24.388Z,99612.88
2022-08-20T09:54:55.371Z,99614.06
2022-08-20T09:57:22.458Z,99611.50
2022-08-20T09:59:57.298Z,99616.06
2022-08-20T10:02:24.964Z,99608.06
2022-08-20T10:04:52.158Z,99605.75
2022-08-20T10:07:19.408Z,99597.28
2022-08-20T10:09:46.058Z,99614.13
2022-08-20T10:12:12.832Z,99602.59
2022-08-20T10:14:39.524Z,99599.41
2022-08-20T10:17:06.221Z,99592.97
2022-08-20T10:19:33.053Z,99588.81
2022-08-20T10:22:00.445Z,99583.03
2022-08-20T10:24:28.107Z,99586.84
2022-08-20T10:26:57.400Z,99589.06
2022-08-20T10:29:24.524Z,99589.94
2022-08-20T10:31:51.495Z,99583.31
2022-08-20T10:34:18.245Z,99579.84
2022-08-20T10:36:45.164Z,99580.06
2022-08-20T10:39:11.951Z,99584.94
2022-08-20T10:41:39.226Z,99587.59
2022-08-20T10:44:06.221Z,99583.41
2022-08-20T10:46:32.975Z,99591.59
2022-08-20T10:48:59.563Z,99583.47
2022-08-20T10:51:32.266Z,99579.28
2022-08-20T10:53:59.802Z,99587.09
2022-08-20T10:56:26.477Z,99584.09
2022-08-20T10:58:53.037Z,99587.88
2022-08-20T11:01:28.709Z,99574.97
2022-08-20T11:03:59.609Z,99579.72
2022-08-20T11:06:26.145Z,99571.09
2022-08-20T11:08:52.726Z,99560.47
2022-08-20T11:11:19.445Z,99569.72
2022-08-20T11:13:45.978Z,99572.91
2022-08-20T11:16:12.642Z,99565.38
2022-08-20T11:18:40.979Z,99564.78
2022-08-20T11:21:10.267Z,99554.75
2022-08-20T11:23:36.900Z,99548.63
2022-08-20T11:26:03.697Z,99565.63
2022-08-20T11:28:32.379Z,99556.16
2022-08-20T11:30:59.815Z,99554.63
2022-08-20T11:33:26.377Z,99558.75
2022-08-20T11:35:52.981Z,99558.84
2022-08-20T11:38:19.670Z,99569.88
2022-08-20T11:40:47.100Z,99560.25
2022-08-20T11:43:15.982Z,99562.59
2022-08-20T11:45:52.722Z,99572.97
2022-08-20T11:48:19.628Z,99559.53
2022-08-20T11:50:48.124Z,99553.97
2022-08-20T11:53:15.043Z,99565.44
2022-08-20T11:55:41.741Z,99564.19
2022-08-20T11:58:09.734Z,99561.16
2022-08-20T12:00:37.363Z,99556.50
2022-08-20T12:03:08.643Z,99558.94
2022-08-20T12:05:37.406Z,99560.97
2022-08-20T12:08:04.440Z,99546.38
2022-08-20T12:10:32.006Z,99551.97
2022-08-20T12:12:59.038Z,99544.03
2022-08-20T12:15:27.500Z,99560.19
2022-08-20T12:17:55.056Z,99555.44
2022-08-20T12:20:22.361Z,99547.56
2022-08-20T12:22:49.115Z,99554.31
2022-08-20T12:25:15.990Z,99550.28
2022-08-20T12:27:42.924Z,99557.75
2022-08-20T12:30:15.746Z,99556.53
2022-08-20T12:32:42.611Z,99539.59
2022-08-20T12:35:10.684Z,99546.38
2022-08-20T12:37:38.304Z,99545.59
2022-08-20T12:40:09.229Z,99551.50
2022-08-20T12:42:35.933Z,99547.16
2022-08-20T12:45:02.785Z,99548.41
2022-08-20T12:47:35.092Z,99544.81
2022-08-20T12:50:15.799Z,99551.88
2022-08-20T12:52:42.983Z,99542.78
2022-08-20T12:55:12.915Z,99540.81
2022-08-20T12:57:43.312Z,99529.72
2022-08-20T13:00:17.083Z,99533.75
2022-08-20T13:02:45.143Z,99533.81
2022-08-20T13:05:12.860Z,99533.03
2022-08-20T13:07:40.495Z,99540.97
2022-08-20T13:10:09.567Z,99537.00
2022-08-20T13:12:36.533Z,99539.31
2022-08-20T13:15:04.216Z,99527.44
2022-08-20T13:17:39.153Z,99535.41
2022-08-20T13:20:34.046Z,99527.50
2022-08-20T13:23:02.456Z,99522.00
2022-08-20T13:25:29.133Z,99537.84
2022-08-20T13:28:00.233Z,99528.38
2022-08-20T13:30:27.021Z,99525.63
2022-08-20T13:32:53.637Z,99521.25
2022-08-20T13:35:20.442Z,99518.47
2022-08-20T13:37:49.038Z,99520.06
2022-08-20T13:40:17.026Z,99514.09
2022-08-20T13:42:43.675Z,99518.03
2022-08-20T13:45:11.133Z,99514.88
2022-08-20T13:47:39.516Z,99510.13
2022-08-20T13:50:13.888Z,99509.72
2022-08-20T13:52:42.751Z,99522.78
2022-08-20T13:55:12.840Z,99520.41
2022-08-20T13:57:40.556Z,99512.44
2022-08-20T14:00:13.199Z,99521.50
2022-08-20T14:02:41.284Z,99522.59
2022-08-20T14:05:08.659Z,99504.94
2022-08-20T14:07:35.811Z,99518.31
2022-08-20T14:10:10.106Z,99508.19
2022-08-20T14:12:36.718Z,99506.69
2022-08-20T14:15:04.639Z,99499.88
2022-08-20T14:17:34.340Z,99496.16
2022-08-20T14:20:05.177Z,99488.53
2022-08-20T14:22:33.371Z,99493.06
2022-08-20T14:25:03.338Z,99484.94
2022-08-20T14:27:32.689Z,99488.91
2022-08-20T14:29:59.985Z,99496.63
2022-08-20T14:32:27.477Z,99492.28
2022-08-20T14:34:56.660Z,99487.03
2022-08-20T14:37:27.005Z,99490.88
2022-08-20T14:39:57.333Z,99487.28
2022-08-20T14:42:26.438Z,99477.16
2022-08-20T14:44:53.878Z,99486.09
2022-08-20T14:47:29.710Z,99484.00
2022-08-20T14:50:01.956Z,99481.91
2022-08-20T14:52:29.002Z,99473.72
2022-08-20T14:54:55.779Z,99479.28
2022-08-20T14:57:23.066Z,99474.25
2022-08-20T14:59:52.551Z,99472.31
2022-08-20T15:02:19.175Z,99478.34
2022-08-20T15:04:54.006Z,99472.59
2022-08-20T15:07:33.854Z,99464.16
2022-08-20T15:10:02.452Z,99462.81
2022-08-20T15:12:29.293Z,99461.75
2022-08-20T15:14:55.954Z,99465.47
2022-08-20T15:17:28.744Z,99456.16
2022-08-20T15:19:56.466Z,99457.66
2022-08-20T15:22:24.076Z,99456.59
2022-08-20T15:24:55.471Z,99452.94
2022-08-20T15:27:25.376Z,99456.94
2022-08-20T15:29:52.933Z,99453.63
2022-08-20T15:32:21.020Z,99452.94
2022-08-20T15:34:48.385Z,99464.97
2022-08-20T15:37:18.926Z,99462.31
2022-08-20T15:39:46.650Z,99462.00
2022-08-20T15:42:14.328Z,99460.00
2022-08-20T15:44:42.532Z,99447.94
2022-08-20T15:47:18.374Z,99446.44
2022-08-20T15:49:45.559Z,99446.00
2022-08-20T15:52:13.022Z,99440.56
2022-08-20T15:54:40.340Z,99443.25
2022-08-20T15:57:45.562Z,99444.75
2022-08-20T16:00:20.202Z,99451.94
2022-08-20T16:02:56.142Z,99444.63
2022-08-20T16:05:47.816Z,99444.09
2022-08-20T16:08:40.493Z,99453.28
2022-08-20T16:11:44.845Z,99458.38
2022-08-20T16:14:11.341Z,99458.28
2022-08-20T16:16:46.320Z,99455.88
2022-08-20T16:19:23.004Z,99454.25
2022-08-20T16:21:51.183Z,99444.13
2022-08-20T16:24:19.852Z,99449.81
2022-08-20T16:27:34.187Z,99443.94
2022-08-20T16:30:15.586Z,99439.91
2022-08-20T16:32:59.457Z,99442.19
2022-08-20T16:35:33.978Z,99453.78
2022-08-20T16:38:37.513Z,99448.41
2022-08-20T16:41:14.681Z,99460.06
2022-08-20T16:43:50.926Z,99442.16
2022-08-20T16:46:25.806Z,99462.81
2022-08-20T16:48:58.032Z,99457.81
2022-08-20T16:51:40.766Z,99464.31
2022-08-20T16:54:08.833Z,99465.03
2022-08-20T16:56:43.360Z,99468.06
2022-08-20T16:59:26.599Z,99467.69
2022-08-20T17:02:07.044Z,99474.91
2022-08-20T17:04:34.708Z,99479.03
2022-08-20T17:07:06.973Z,99478.88
2022-08-20T17:09:43.405Z,99469.50
2022-08-20T17:12:20.598Z,99480.34
2022-08-20T17:14:52.744Z,99471.28
2022-08-20T17:17:28.715Z,99467.75
2022-08-20T17:20:01.013Z,99465.81
2022-08-20T17:22:30.016Z,99456.31
2022-08-20T17:24:57.821Z,99457.13
2022-08-20T17:27:42.815Z,99466.25
2022-08-20T17:30:37.020Z,99467.78
2022-08-20T17:33:07.202Z,99472.94
2022-08-20T17:35:43.035Z,99468.16
2022-08-20T17:38:27.923Z,99470.53
2022-08-20T17:40:59.981Z,99466.56
2022-08-20T17:43:30.689Z,99467.34
2022-08-20T17:45:59.899Z,99470.13
2022-08-20T17:48:36.607Z,99467.31
2022-08-20T17:51:15.212Z,99470.84
2022-08-20T17:53:43.954Z,99470.41
2022-08-20T17:56:19.609Z,99479.09
2022-08-20T17:59:24.113Z,99475.06
2022-08-20T18:02:04.800Z,99478.19
2022-08-20T18:04:32.215Z,99479.75
2022-08-20T18:07:13.095Z,99484.41
2022-08-20T18:10:06.299Z,99488.31
2022-08-20T18:12:48.004Z,99478.78
2022-08-20T18:15:24.743Z,99490.19
2022-08-20T18:18:06.887Z,99488.94
2022-08-20T18:20:37.378Z,99488.03
2022-08-20T18:23:28.879Z,99496.63
2022-08-20T18:26:26.680Z,99492.94
2022-08-20T18:28:59.496Z,99491.72
2022-08-20T18:31:42.160Z,99496.38
2022-08-20T18:34:14.824Z,99498.66
2022-08-20T18:36:42.413Z,99501.75
2022-08-20T18:39:23.618Z,99511.91
2022-08-20T18:42:02.513Z,99502.75
2022-08-20T18:44:41.816Z,99511.72
2022-08-20T18:47:38.941Z,99517.47
2022-08-20T18:50:16.828Z,99512.63
2022-08-20T18:53:14.972Z,99516.78
2022-08-20T18:56:04.420Z,99519.06
2022-08-20T18:58:33.114Z,99524.50
2022-08-20T19:01:03.448Z,99522.41
2022-08-20T19:03:36.194Z,99518.78
2022-08-20T19:06:08.731Z,99525.03
2022-08-20T19:09:05.488Z,99526.09
2022-08-20T19:11:50.312Z,99529.13
2022-08-20T19:15:09.417Z,99536.88
2022-08-20T19:17:57.660Z,99535.63
2022-08-20T19:20:28.569Z,99531.56
2022-08-20T19:23:01.397Z,99533.00
2022-08-20T19:25:33.100Z,99541.53
2022-08-20T19:28:04.410Z,99548.88
2022-08-20T19:30:40.199Z,99548.03
2022-08-20T19:33:08.586Z,99545.22
2022-08-20T19:35:36.179Z,99550.59
2022-08-20T19:38:07.177Z,99537.09
2022-08-20T19:40:39.283Z,99550.41
2022-08-20T19:43:14.234Z,99537.72
2022-08-20T19:45:54.609Z,99545.91
2022-08-20T19:48:36.450Z,99538.31
2022-08-20T19:51:14.165Z,99546.88
2022-08-20T19:53:48.996Z,99536.59
2022-08-20T19:56:21.516Z,99540.44
2022-08-20T19:59:07.423Z,99553.28
2022-08-20T20:01:34.864Z,99544.22
2022-08-20T20:04:04.863Z,99546.91
2022-08-20T20:06:36.393Z,99546.03
2022-08-20T20:09:15.034Z,99551.84
2022-08-20T20:11:46.196Z,99557.34
2022-08-20T20:14:15.011Z,99556.50
2022-08-20T20:16:42.711Z,99557.28
2022-08-20T20:19:27.991Z,99545.91
2022-08-20T20:22:04.124Z,99558.38
2022-08-20T20:24:40.598Z,99558.38
2022-08-20T20:27:19.987Z,99566.53
2022-08-20T20:29:48.078Z,99558.56
2022-08-20T20:32:25.094Z,99563.13
2022-08-20T20:34:56.302Z,99563.84
2022-08-20T20:37:50.722Z,99574.66
2022-08-20T20:40:23.518Z,99570.63
2022-08-20T20:43:06.220Z,99567.28
2022-08-20T20:45:39.758Z,99571.47
2022-08-20T20:48:20.628Z,99566.25
2022-08-20T20:50:49.103Z,99570.88
2022-08-20T20:53:51.197Z,99567.53
2022-08-20T20:56:37.274Z,99572.41
2022-08-20T20:59:07.155Z,99562.88
2022-08-20T21:01:46.127Z,99559.94
2022-08-20T21:04:16.814Z,99565.25
2022-08-20T21:06:43.723Z,99564.38
2022-08-20T21:09:10.356Z,99572.53
2022-08-20T21:11:37.082Z,99562.63
2022-08-20T21:14:03.804Z,99561.03
2022-08-20T21:16:30.450Z,99562.63
2022-08-20T21:18:58.389Z,99558.28
2022-08-20T21:21:25.179Z,99556.25
2022-08-20T21:23:51.780Z,99559.69
2022-08-20T21:26:18.717Z,99556.06
2022-08-20T21:28:45.508Z,99562.25
2022-08-20T21:31:12.332Z,99559.06
2022-08-20T21:33:39.140Z,99563.69
2022-08-20T21:36:06.604Z,99558.53
2022-08-20T21:38:33.264Z,99557.75
2022-08-20T21:40:59.940Z,99566.00
2022-08-20T21:43:26.932Z,99564.84
2022-08-20T21:45:53.809Z,99560.50
2022-08-20T21:48:20.687Z,99556.88
2022-08-20T21:50:47.276Z,99561.91
2022-08-20T21:53:13.896Z,99559.50
2022-08-20T21:55:41.148Z,99554.75
2022-08-20T21:58:08.540Z,99561.38
2022-08-20T22:00:54.736Z,99560.94
2022-08-20T22:03:26.868Z,99570.41
2022-08-20T22:05:53.797Z,99573.50
2022-08-20T22:08:21.115Z,99566.31
2022-08-20T22:10:54.345Z,99565.44
2022-08-20T22:13:22.261Z,99564.56
2022-08-20T22:15:48.940Z,99558.88
2022-08-20T22:18:17.176Z,99565.03
2022-08-20T22:20:44.407Z,99557.78
2022-08-20T22:23:11.941Z,99564.66
2022-08-20T22:25:38.556Z,99566.50
2022-08-20T22:28:05.101Z,99569.41
2022-08-20T22:30:31.687Z,99573.44
2022-08-20T22:33:04.797Z,99562.97
2022-08-20T22:35:32.329Z,99565.06
2022-08-20T22:37:58.967Z,99568.72
2022-08-20T22:40:26.044Z,99568.53
2022-08-20T22:42:52.872Z,99573.13
2022-08-20T22:45:19.684Z,99565.94
2022-08-20T22:47:46.783Z,99564.66
2022-08-20T22:50:14.235Z,99562.97
2022-08-20T22:52:42.404Z,99565.56
2022-08-20T22:55:09.737Z,99552.13
2022-08-20T22:57:37.448Z,99561.38
2022-08-20T23:00:11.430Z,99558.53
2022-08-20T23:02:38.973Z,99561.97
2022-08-20T23:05:06.600Z,99564.16
2022-08-20T23:07:34.003Z,99556.19
2022-08-20T23:10:00.584Z,99552.16
2022-08-20T23:12:27.155Z,99552.94
2022-08-20T23:14:54.890Z,99554.91
2022-08-20T23:17:21.501Z,99554.00
2022-08-20T23:19:49.808Z,99547.63
2022-08-20T23:22:18.534Z,99554.44
2022-08-20T23:24:45.314Z,99551.50
2022-08-20T23:27:16.136Z,99551.28
2022-08-20T23:29:44.247Z,99546.94
2022-08-20T23:32:11.986Z,99550.81
2022-08-20T23:34:38.860Z,99559.25
2022-08-20T23:37:07.342Z,99549.66
2022-08-20T23:39:34.435Z,99551.69
2022-08-20T23:42:01.603Z,99558.50
2022-08-20T23:44:28.555Z,99557.69
2022-08-20T23:46:59.435Z,99556.91
2022-08-20T23:49:27.292Z,99555.31
2022-08-20T23:51:54.076Z,99542.78
2022-08-20T23:54:21.024Z,99538.00
2022-08-20T23:56:47.629Z,99546.41
2022-08-20T23:59:14.154Z,99546.75
